sensor_id;sensor_type;location;lat;lon;timestamp;pressure;altitude;pressure_sealevel;temperature;humidity
54236;BME280;40151;43.606;1.472;2023-07-02T00:00:03;99625.16;;;24.72;53.42
54236;BME280;40151;43.606;1.472;2023-07-02T00:02:30;99600.41;;;24.70;53.95
54236;BME280;40151;43.606;1.472;2023-07-02T00:04:56;99603.19;;;24.68;53.15
54236;BME280;40151;43.606;1.472;2023-07-02T00:07:21;99607.69;;;24.67;53.23
54236;BME280;40151;43.606;1.472;2023-07-02T00:09:46;99611.31;;;24.66;53.52
54236;BME280;40151;43.606;1.472;2023-07-02T00:12:13;99603.81;;;24.72;52.94
54236;BME280;40151;43.606;1.472;2023-07-02T00:14:38;99602.13;;;24.71;53.26
54236;BME280;40151;43.606;1.472;2023-07-02T00:17:04;99599.44;;;24.71;53.02
54236;BME280;40151;43.606;1.472;2023-07-02T00:19:29;99598.47;;;24.72;53.10
54236;BME280;40151;43.606;1.472;2023-07-02T00:21:54;99599.44;;;24.71;53.23
54236;BME280;40151;43.606;1.472;2023-07-02T00:24:20;99599.44;;;24.71;52.95
54236;BME280;40151;43.606;1.472;2023-07-02T00:26:46;99599.44;;;24.71;52.98
54236;BME280;40151;43.606;1.472;2023-07-02T00:29:11;99595.31;;;24.66;53.33
54236;BME280;40151;43.606;1.472;2023-07-02T00:31:37;99592.53;;;24.68;53.29
54236;BME280;40151;43.606;1.472;2023-07-02T00:34:03;99590.72;;;24.69;53.21
54236;BME280;40151;43.606;1.472;2023-07-02T00:36:30;99589.75;;;24.70;53.10
54236;BME280;40151;43.606;1.472;2023-07-02T00:38:56;99588.88;;;24.69;53.08
54236;BME280;40151;43.606;1.472;2023-07-02T00:41:22;99585.28;;;24.70;53.03
54236;BME280;40151;43.606;1.472;2023-07-02T00:43:47;99583.03;;;24.64;53.14
54236;BME280;40151;43.606;1.472;2023-07-02T00:46:17;99579.53;;;24.63;53.22
54236;BME280;40151;43.606;1.472;2023-07-02T00:48:46;99570.81;;;24.61;53.23
54236;BME280;40151;43.606;1.472;2023-07-02T00:51:15;99573.59;;;24.60;53.20
54236;BME280;40151;43.606;1.472;2023-07-02T00:53:40;99578.81;;;24.61;53.48
54236;BME280;40151;43.606;1.472;2023-07-02T00:56:06;99572.72;;;24.59;53.22
54236;BME280;40151;43.606;1.472;2023-07-02T00:58:34;99570.06;;;24.59;53.27
54236;BME280;40151;43.606;1.472;2023-07-02T01:01:02;99571.03;;;24.58;53.41
54236;BME280;40151;43.606;1.472;2023-07-02T01:03:28;99569.84;;;24.62;53.26
54236;BME280;40151;43.606;1.472;2023-07-02T01:05:54;99569.22;;;24.59;52.99
54236;BME280;40151;43.606;1.472;2023-07-02T01:08:19;99563.75;;;24.60;53.29
54236;BME280;40151;43.606;1.472;2023-07-02T01:10:45;99566.66;;;24.57;53.57
54236;BME280;40151;43.606;1.472;2023-07-02T01:13:15;99561.94;;;24.61;53.11
54236;BME280;40151;43.606;1.472;2023-07-02T01:15:42;99574.31;;;24.62;52.79
54236;BME280;40151;43.606;1.472;2023-07-02T01:18:08;99562.03;;;24.59;52.89
54236;BME280;40151;43.606;1.472;2023-07-02T01:20:34;99565.69;;;24.58;53.45
54236;BME280;40151;43.606;1.472;2023-07-02T01:23:01;99567.38;;;24.59;53.49
54236;BME280;40151;43.606;1.472;2023-07-02T01:25:28;99567.38;;;24.59;53.29
54236;BME280;40151;43.606;1.472;2023-07-02T01:27:54;99558.66;;;24.57;53.28
54236;BME280;40151;43.606;1.472;2023-07-02T01:30:20;99565.78;;;24.57;53.42
54236;BME280;40151;43.606;1.472;2023-07-02T01:32:46;99556.97;;;24.56;53.07
54236;BME280;40151;43.606;1.472;2023-07-02T01:35:11;99569.31;;;24.57;53.37
54236;BME280;40151;43.606;1.472;2023-07-02T01:37:37;99569.44;;;24.56;53.30
54236;BME280;40151;43.606;1.472;2023-07-02T01:40:03;99562.28;;;24.56;53.12
54236;BME280;40151;43.606;1.472;2023-07-02T01:42:31;99556.97;;;24.56;53.32
54236;BME280;40151;43.606;1.472;2023-07-02T01:44:57;99551.63;;;24.56;53.14
54236;BME280;40151;43.606;1.472;2023-07-02T01:47:22;99557.06;;;24.54;53.44
54236;BME280;40151;43.606;1.472;2023-07-02T01:49:50;99551.00;;;24.52;53.08
54236;BME280;40151;43.606;1.472;2023-07-02T01:52:16;99549.91;;;24.55;53.13
54236;BME280;40151;43.606;1.472;2023-07-02T01:54:41;99544.81;;;24.52;53.83
54236;BME280;40151;43.606;1.472;2023-07-02T01:57:07;99549.06;;;24.54;53.08
54236;BME280;40151;43.606;1.472;2023-07-02T01:59:32;99548.19;;;24.54;53.20
54236;BME280;40151;43.606;1.472;2023-07-02T02:01:58;99551.84;;;24.53;53.46
54236;BME280;40151;43.606;1.472;2023-07-02T02:04:23;99553.66;;;24.52;53.25
54236;BME280;40151;43.606;1.472;2023-07-02T02:06:49;99547.22;;;24.55;52.97
54236;BME280;40151;43.606;1.472;2023-07-02T02:09:14;99543.84;;;24.53;53.18
54236;BME280;40151;43.606;1.472;2023-07-02T02:11:44;99549.91;;;24.55;53.02
54236;BME280;40151;43.606;1.472;2023-07-02T02:14:10;99543.72;;;24.54;52.83
54236;BME280;40151;43.606;1.472;2023-07-02T02:16:36;99536.69;;;24.53;52.83
54236;BME280;40151;43.606;1.472;2023-07-02T02:19:02;99539.38;;;24.53;53.26
54236;BME280;40151;43.606;1.472;2023-07-02T02:21:27;99535.84;;;24.53;52.95
54236;BME280;40151;43.606;1.472;2023-07-02T02:23:53;99532.44;;;24.51;53.00
54236;BME280;40151;43.606;1.472;2023-07-02T02:26:18;99537.78;;;24.51;53.17
54236;BME280;40151;43.606;1.472;2023-07-02T02:28:47;99532.44;;;24.51;53.20
54236;BME280;40151;43.606;1.472;2023-07-02T02:31:13;99528.81;;;24.52;53.03
54236;BME280;40151;43.606;1.472;2023-07-02T02:33:38;99528.91;;;24.50;53.29
54236;BME280;40151;43.606;1.472;2023-07-02T02:36:04;99534.13;;;24.52;53.09
54236;BME280;40151;43.606;1.472;2023-07-02T02:38:30;99530.75;;;24.50;53.27
54236;BME280;40151;43.606;1.472;2023-07-02T02:40:55;99532.44;;;24.51;52.82
54236;BME280;40151;43.606;1.472;2023-07-02T02:43:20;99533.41;;;24.50;52.90
54236;BME280;40151;43.606;1.472;2023-07-02T02:45:47;99534.34;;;24.49;53.09
54236;BME280;40151;43.606;1.472;2023-07-02T02:48:12;99532.66;;;24.48;53.02
54236;BME280;40151;43.606;1.472;2023-07-02T02:50:38;99538.00;;;24.48;52.93
54236;BME280;40151;43.606;1.472;2023-07-02T02:53:09;99538.00;;;24.48;52.80
54236;BME280;40151;43.606;1.472;2023-07-02T02:55:35;99534.34;;;24.49;53.27
54236;BME280;40151;43.606;1.472;2023-07-02T02:58:01;99541.41;;;24.50;52.94
54236;BME280;40151;43.606;1.472;2023-07-02T03:00:26;99533.63;;;24.47;53.10
54236;BME280;40151;43.606;1.472;2023-07-02T03:02:52;99533.63;;;24.47;53.09
54236;BME280;40151;43.606;1.472;2023-07-02T03:05:17;99539.94;;;24.46;53.08
54236;BME280;40151;43.606;1.472;2023-07-02T03:07:43;99540.75;;;24.46;53.31
54236;BME280;40151;43.606;1.472;2023-07-02T03:10:08;99534.81;;;24.43;53.25
54236;BME280;40151;43.606;1.472;2023-07-02T03:12:34;99536.75;;;24.40;53.43
54236;BME280;40151;43.606;1.472;2023-07-02T03:14:59;99529.47;;;24.43;53.15
54236;BME280;40151;43.606;1.472;2023-07-02T03:17:25;99542.72;;;24.44;53.08
54236;BME280;40151;43.606;1.472;2023-07-02T03:19:51;99528.66;;;24.42;53.25
54236;BME280;40151;43.606;1.472;2023-07-02T03:22:16;99532.03;;;24.44;53.11
54236;BME280;40151;43.606;1.472;2023-07-02T03:24:42;99534.81;;;24.43;53.34
54236;BME280;40151;43.606;1.472;2023-07-02T03:27:07;99536.53;;;24.44;53.12
54236;BME280;40151;43.606;1.472;2023-07-02T03:29:34;99530.25;;;24.45;53.30
54236;BME280;40151;43.606;1.472;2023-07-02T03:32:00;99533.13;;;24.42;53.16
54236;BME280;40151;43.606;1.472;2023-07-02T03:34:26;99536.53;;;24.44;53.09
54236;BME280;40151;43.606;1.472;2023-07-02T03:36:51;99539.94;;;24.46;52.74
54236;BME280;40151;43.606;1.472;2023-07-02T03:39:17;99534.81;;;24.43;52.93
54236;BME280;40151;43.606;1.472;2023-07-02T03:41:43;99534.59;;;24.46;53.07
54236;BME280;40151;43.606;1.472;2023-07-02T03:44:09;99539.31;;;24.42;53.09
54236;BME280;40151;43.606;1.472;2023-07-02T03:46:34;99530.44;;;24.42;53.03
54236;BME280;40151;43.606;1.472;2023-07-02T03:49:00;99534.81;;;24.43;53.00
54236;BME280;40151;43.606;1.472;2023-07-02T03:51:25;99534.81;;;24.43;53.20
54236;BME280;40151;43.606;1.472;2023-07-02T03:53:51;99529.38;;;24.44;52.88
54236;BME280;40151;43.606;1.472;2023-07-02T03:56:16;99532.75;;;24.46;53.05
54236;BME280;40151;43.606;1.472;2023-07-02T03:58:42;99527.78;;;24.42;53.06
54236;BME280;40151;43.606;1.472;2023-07-02T04:01:07;99533.13;;;24.42;52.89
54236;BME280;40151;43.606;1.472;2023-07-02T04:03:33;99536.75;;;24.40;53.20
54236;BME280;40151;43.606;1.472;2023-07-02T04:05:58;99530.44;;;24.42;53.32
54236;BME280;40151;43.606;1.472;2023-07-02T04:08:24;99531.41;;;24.40;52.90
54236;BME280;40151;43.606;1.472;2023-07-02T04:10:50;99535.06;;;24.39;53.18
54236;BME280;40151;43.606;1.472;2023-07-02T04:13:16;99529.94;;;24.36;53.17
54236;BME280;40151;43.606;1.472;2023-07-02T04:15:41;99526.09;;;24.40;53.20
54236;BME280;40151;43.606;1.472;2023-07-02T04:18:07;99536.75;;;24.40;53.07
54236;BME280;40151;43.606;1.472;2023-07-02T04:20:32;99533.38;;;24.38;53.03
54236;BME280;40151;43.606;1.472;2023-07-02T04:22:58;99538.69;;;24.38;52.91
54236;BME280;40151;43.606;1.472;2023-07-02T04:25:24;99539.63;;;24.37;53.23
54236;BME280;40151;43.606;1.472;2023-07-02T04:27:50;99533.38;;;24.38;52.86
54236;BME280;40151;43.606;1.472;2023-07-02T04:30:16;99532.50;;;24.38;53.18
54236;BME280;40151;43.606;1.472;2023-07-02T04:32:41;99533.38;;;24.38;53.16
54236;BME280;40151;43.606;1.472;2023-07-02T04:35:07;99533.81;;;24.32;53.33
54236;BME280;40151;43.606;1.472;2023-07-02T04:37:33;99535.50;;;24.33;53.03
54236;BME280;40151;43.606;1.472;2023-07-02T04:39:59;99538.28;;;24.32;53.15
54236;BME280;40151;43.606;1.472;2023-07-02T04:42:28;99532.84;;;24.33;53.39
54236;BME280;40151;43.606;1.472;2023-07-02T04:44:56;99535.41;;;24.35;53.50
54236;BME280;40151;43.606;1.472;2023-07-02T04:47:27;99544.25;;;24.35;53.33
54236;BME280;40151;43.606;1.472;2023-07-02T04:49:52;99540.75;;;24.35;53.21
54236;BME280;40151;43.606;1.472;2023-07-02T04:52:17;99544.97;;;24.37;53.04
54236;BME280;40151;43.606;1.472;2023-07-02T04:54:43;99533.81;;;24.32;53.10
54236;BME280;40151;43.606;1.472;2023-07-02T04:57:08;99538.06;;;24.35;53.00
54236;BME280;40151;43.606;1.472;2023-07-02T04:59:34;99533.81;;;24.32;53.20
54236;BME280;40151;43.606;1.472;2023-07-02T05:01:59;99534.75;;;24.31;53.39
54236;BME280;40151;43.606;1.472;2023-07-02T05:04:24;99534.91;;;24.30;53.34
54236;BME280;40151;43.606;1.472;2023-07-02T05:06:50;99535.50;;;24.33;53.12
54236;BME280;40151;43.606;1.472;2023-07-02T05:09:15;99537.31;;;24.33;53.29
54236;BME280;40151;43.606;1.472;2023-07-02T05:11:41;99529.56;;;24.30;53.10
54236;BME280;40151;43.606;1.472;2023-07-02T05:14:06;99537.44;;;24.31;53.42
54236;BME280;40151;43.606;1.472;2023-07-02T05:16:31;99540.84;;;24.33;53.02
54236;BME280;40151;43.606;1.472;2023-07-02T05:18:57;99539.16;;;24.32;53.12
54236;BME280;40151;43.606;1.472;2023-07-02T05:21:22;99545.56;;;24.30;53.44
54236;BME280;40151;43.606;1.472;2023-07-02T05:23:48;99541.94;;;24.31;53.22
54236;BME280;40151;43.606;1.472;2023-07-02T05:26:14;99557.06;;;24.30;53.18
54236;BME280;40151;43.606;1.472;2023-07-02T05:28:39;99547.25;;;24.31;53.43
54236;BME280;40151;43.606;1.472;2023-07-02T05:31:04;99542.75;;;24.31;53.45
54236;BME280;40151;43.606;1.472;2023-07-02T05:33:30;99542.75;;;24.31;53.41
54236;BME280;40151;43.606;1.472;2023-07-02T05:35:57;99541.94;;;24.31;53.32
54236;BME280;40151;43.606;1.472;2023-07-02T05:38:23;99538.28;;;24.32;53.01
54236;BME280;40151;43.606;1.472;2023-07-02T05:40:49;99537.56;;;24.30;53.22
54236;BME280;40151;43.606;1.472;2023-07-02T05:43:14;99539.38;;;24.29;53.22
54236;BME280;40151;43.606;1.472;2023-07-02T05:45:40;99533.16;;;24.29;53.31
54236;BME280;40151;43.606;1.472;2023-07-02T05:48:05;99543.97;;;24.27;53.56
54236;BME280;40151;43.606;1.472;2023-07-02T05:50:31;99543.84;;;24.29;53.29
54236;BME280;40151;43.606;1.472;2023-07-02T05:52:56;99557.06;;;24.30;53.30
54236;BME280;40151;43.606;1.472;2023-07-02T05:55:22;99555.38;;;24.29;53.12
54236;BME280;40151;43.606;1.472;2023-07-02T05:57:48;99546.41;;;24.30;53.47
54236;BME280;40151;43.606;1.472;2023-07-02T06:00:14;99552.81;;;24.27;53.34
54236;BME280;40151;43.606;1.472;2023-07-02T06:02:39;99555.59;;;24.26;53.52
54236;BME280;40151;43.606;1.472;2023-07-02T06:05:05;99554.75;;;24.25;53.65
54236;BME280;40151;43.606;1.472;2023-07-02T06:07:31;99548.44;;;24.26;53.68
54236;BME280;40151;43.606;1.472;2023-07-02T06:09:56;99545.78;;;24.26;53.35
54236;BME280;40151;43.606;1.472;2023-07-02T06:12:22;99543.00;;;24.28;53.36
54236;BME280;40151;43.606;1.472;2023-07-02T06:14:48;99535.34;;;24.23;53.80
54236;BME280;40151;43.606;1.472;2023-07-02T06:17:14;99536.81;;;24.27;53.51
54236;BME280;40151;43.606;1.472;2023-07-02T06:19:40;99538.63;;;24.27;53.63
54236;BME280;40151;43.606;1.472;2023-07-02T06:22:06;99541.31;;;24.27;53.54
54236;BME280;40151;43.606;1.472;2023-07-02T06:24:31;99559.72;;;24.30;53.13
54236;BME280;40151;43.606;1.472;2023-07-02T06:26:57;99555.59;;;24.26;53.50
54236;BME280;40151;43.606;1.472;2023-07-02T06:29:23;99562.63;;;24.27;53.64
54236;BME280;40151;43.606;1.472;2023-07-02T06:31:49;99559.00;;;24.28;53.36
54236;BME280;40151;43.606;1.472;2023-07-02T06:34:14;99565.31;;;24.27;53.64
54236;BME280;40151;43.606;1.472;2023-07-02T06:36:40;99560.69;;;24.29;53.57
54236;BME280;40151;43.606;1.472;2023-07-02T06:39:05;99556.34;;;24.28;53.61
54236;BME280;40151;43.606;1.472;2023-07-02T06:41:31;99567.97;;;24.27;53.68
54236;BME280;40151;43.606;1.472;2023-07-02T06:43:56;99563.59;;;24.26;53.53
54236;BME280;40151;43.606;1.472;2023-07-02T06:46:22;99559.97;;;24.27;53.48
54236;BME280;40151;43.606;1.472;2023-07-02T06:48:47;99559.97;;;24.27;53.32
54236;BME280;40151;43.606;1.472;2023-07-02T06:51:13;99559.84;;;24.29;53.50
54236;BME280;40151;43.606;1.472;2023-07-02T06:53:41;99561.66;;;24.28;53.42
54236;BME280;40151;43.606;1.472;2023-07-02T06:56:08;99570.63;;;24.27;53.42
54236;BME280;40151;43.606;1.472;2023-07-02T06:58:34;99569.66;;;24.28;53.32
54236;BME280;40151;43.606;1.472;2023-07-02T07:01:00;99566.38;;;24.24;53.56
54236;BME280;40151;43.606;1.472;2023-07-02T07:03:25;99567.97;;;24.27;53.58
54236;BME280;40151;43.606;1.472;2023-07-02T07:05:50;99569.66;;;24.28;53.53
54236;BME280;40151;43.606;1.472;2023-07-02T07:08:16;99566.28;;;24.26;53.64
54236;BME280;40151;43.606;1.472;2023-07-02T07:10:41;99572.22;;;24.30;53.59
54236;BME280;40151;43.606;1.472;2023-07-02T07:13:06;99569.88;;;24.25;53.78
54236;BME280;40151;43.606;1.472;2023-07-02T07:15:33;99570.50;;;24.29;53.80
54236;BME280;40151;43.606;1.472;2023-07-02T07:18:00;99567.72;;;24.30;53.56
54236;BME280;40151;43.606;1.472;2023-07-02T07:20:25;99564.34;;;24.28;53.54
54236;BME280;40151;43.606;1.472;2023-07-02T07:22:51;99571.38;;;24.29;53.78
54236;BME280;40151;43.606;1.472;2023-07-02T07:25:16;99577.66;;;24.28;53.75
54236;BME280;40151;43.606;1.472;2023-07-02T07:27:41;99567.97;;;24.27;53.70
54236;BME280;40151;43.606;1.472;2023-07-02T07:30:07;99569.66;;;24.28;53.32
54236;BME280;40151;43.606;1.472;2023-07-02T07:32:32;99564.53;;;24.25;53.64
54236;BME280;40151;43.606;1.472;2023-07-02T07:34:58;99567.97;;;24.27;53.46
54236;BME280;40151;43.606;1.472;2023-07-02T07:37:24;99567.00;;;24.28;53.54
54236;BME280;40151;43.606;1.472;2023-07-02T07:39:50;99557.31;;;24.27;53.63
54236;BME280;40151;43.606;1.472;2023-07-02T07:42:16;99567.09;;;24.26;53.68
54236;BME280;40151;43.606;1.472;2023-07-02T07:44:42;99573.31;;;24.27;53.57
54236;BME280;40151;43.606;1.472;2023-07-02T07:47:07;99569.66;;;24.28;53.38
54236;BME280;40151;43.606;1.472;2023-07-02T07:49:33;99565.31;;;24.27;53.70
54236;BME280;40151;43.606;1.472;2023-07-02T07:51:58;99575.09;;;24.26;53.52
54236;BME280;40151;43.606;1.472;2023-07-02T07:54:24;99575.00;;;24.28;53.56
54236;BME280;40151;43.606;1.472;2023-07-02T07:56:50;99570.63;;;24.27;53.71
54236;BME280;40151;43.606;1.472;2023-07-02T07:59:15;99571.38;;;24.29;53.81
54236;BME280;40151;43.606;1.472;2023-07-02T08:01:41;99579.25;;;24.31;53.35
54236;BME280;40151;43.606;1.472;2023-07-02T08:04:06;99584.69;;;24.29;53.56
54236;BME280;40151;43.606;1.472;2023-07-02T08:06:32;99587.34;;;24.29;53.57
54236;BME280;40151;43.606;1.472;2023-07-02T08:08:57;99596.09;;;24.31;53.46
54236;BME280;40151;43.606;1.472;2023-07-02T08:11:22;99592.69;;;24.29;53.93
54236;BME280;40151;43.606;1.472;2023-07-02T08:13:48;99591.81;;;24.29;53.71
54236;BME280;40151;43.606;1.472;2023-07-02T08:16:13;99591.00;;;24.28;53.69
54236;BME280;40151;43.606;1.472;2023-07-02T08:18:39;99594.38;;;24.30;53.87
54236;BME280;40151;43.606;1.472;2023-07-02T08:21:04;99597.16;;;24.29;53.95
54236;BME280;40151;43.606;1.472;2023-07-02T08:23:32;99590.03;;;24.29;53.91
54236;BME280;40151;43.606;1.472;2023-07-02T08:25:57;99589.06;;;24.30;53.94
54236;BME280;40151;43.606;1.472;2023-07-02T08:28:22;99584.50;;;24.32;53.84
54236;BME280;40151;43.606;1.472;2023-07-02T08:30:48;99583.50;;;24.33;53.82
54236;BME280;40151;43.606;1.472;2023-07-02T08:33:13;99583.41;;;24.35;53.72
54236;BME280;40151;43.606;1.472;2023-07-02T08:35:39;99591.41;;;24.35;53.92
54236;BME280;40151;43.606;1.472;2023-07-02T08:38:04;99583.41;;;24.35;54.05
54236;BME280;40151;43.606;1.472;2023-07-02T08:40:29;99581.56;;;24.35;53.96
54236;BME280;40151;43.606;1.472;2023-07-02T08:42:55;99583.28;;;24.36;53.62
54236;BME280;40151;43.606;1.472;2023-07-02T08:45:23;99570.91;;;24.35;54.04
54236;BME280;40151;43.606;1.472;2023-07-02T08:47:51;99576.03;;;24.38;53.74
54236;BME280;40151;43.606;1.472;2023-07-02T08:50:20;99581.38;;;24.38;53.82
54236;BME280;40151;43.606;1.472;2023-07-02T08:52:45;99569.84;;;24.38;53.95
54236;BME280;40151;43.606;1.472;2023-07-02T08:55:11;99579.44;;;24.40;53.73
54236;BME280;40151;43.606;1.472;2023-07-02T08:57:36;99583.06;;;24.39;53.75
54236;BME280;40151;43.606;1.472;2023-07-02T09:00:09;99572.41;;;24.39;53.71
54236;BME280;40151;43.606;1.472;2023-07-02T09:02:35;99567.78;;;24.42;53.83
54236;BME280;40151;43.606;1.472;2023-07-02T09:05:02;99557.13;;;24.42;53.64
54236;BME280;40151;43.606;1.472;2023-07-02T09:07:27;99571.22;;;24.44;53.60
54236;BME280;40151;43.606;1.472;2023-07-02T09:09:53;99572.16;;;24.43;53.72
54236;BME280;40151;43.606;1.472;2023-07-02T09:12:25;99587.31;;;24.42;53.64
54236;BME280;40151;43.606;1.472;2023-07-02T09:15:01;99588.16;;;24.43;53.95
54236;BME280;40151;43.606;1.472;2023-07-02T09:17:33;99588.91;;;24.45;53.85
54236;BME280;40151;43.606;1.472;2023-07-02T09:20:00;99591.69;;;24.43;53.89
54236;BME280;40151;43.606;1.472;2023-07-02T09:22:27;99593.50;;;24.43;53.93
54236;BME280;40151;43.606;1.472;2023-07-02T09:24:54;99602.25;;;24.45;53.87
54236;BME280;40151;43.606;1.472;2023-07-02T09:27:20;99590.81;;;24.43;53.97
54236;BME280;40151;43.606;1.472;2023-07-02T09:29:52;99602.25;;;24.45;54.23
54236;BME280;40151;43.606;1.472;2023-07-02T09:32:25;99607.59;;;24.45;53.58
54236;BME280;40151;43.606;1.472;2023-07-02T09:34:54;99597.63;;;24.47;54.19
54236;BME280;40151;43.606;1.472;2023-07-02T09:37:21;99598.59;;;24.46;53.71
54236;BME280;40151;43.606;1.472;2023-07-02T09:39:50;99598.50;;;24.47;54.06
54236;BME280;40151;43.606;1.472;2023-07-02T09:42:17;99598.59;;;24.46;53.85
54236;BME280;40151;43.606;1.472;2023-07-02T09:44:45;99590.50;;;24.47;53.93
54236;BME280;40151;43.606;1.472;2023-07-02T09:47:12;99591.34;;;24.48;53.83
54236;BME280;40151;43.606;1.472;2023-07-02T09:49:39;99590.38;;;24.49;54.04
54236;BME280;40151;43.606;1.472;2023-07-02T09:52:08;99585.91;;;24.49;53.83
54236;BME280;40151;43.606;1.472;2023-07-02T09:54:34;99594.00;;;24.48;53.83
54236;BME280;40151;43.606;1.472;2023-07-02T09:57:01;99592.19;;;24.48;53.72
54236;BME280;40151;43.606;1.472;2023-07-02T09:59:27;99585.91;;;24.49;53.78
54236;BME280;40151;43.606;1.472;2023-07-02T10:01:53;99590.38;;;24.49;54.01
54236;BME280;40151;43.606;1.472;2023-07-02T10:04:20;99599.97;;;24.51;53.84
54236;BME280;40151;43.606;1.472;2023-07-02T10:06:50;99602.63;;;24.51;53.92
54236;BME280;40151;43.606;1.472;2023-07-02T10:09:16;99604.34;;;24.52;53.86
54236;BME280;40151;43.606;1.472;2023-07-02T10:11:42;99603.50;;;24.52;53.52
54236;BME280;40151;43.606;1.472;2023-07-02T10:14:08;99599.97;;;24.51;53.48
54236;BME280;40151;43.606;1.472;2023-07-02T10:16:33;99610.75;;;24.50;53.60
54236;BME280;40151;43.606;1.472;2023-07-02T10:19:28;99614.16;;;24.52;53.67
54236;BME280;40151;43.606;1.472;2023-07-02T10:22:04;99608.09;;;24.50;53.56
54236;BME280;40151;43.606;1.472;2023-07-02T10:24:30;99607.13;;;24.51;54.00
54236;BME280;40151;43.606;1.472;2023-07-02T10:27:00;99613.44;;;24.50;53.75
54236;BME280;40151;43.606;1.472;2023-07-02T10:29:27;99617.03;;;24.49;53.35
54236;BME280;40151;43.606;1.472;2023-07-02T10:31:57;99612.56;;;24.49;53.60
54236;BME280;40151;43.606;1.472;2023-07-02T10:34:29;99613.53;;;24.48;53.43
54236;BME280;40151;43.606;1.472;2023-07-02T10:36:55;99608.19;;;24.48;53.54
54236;BME280;40151;43.606;1.472;2023-07-02T10:39:20;99607.34;;;24.48;53.22
54236;BME280;40151;43.606;1.472;2023-07-02T10:41:46;99608.19;;;24.48;53.49
54236;BME280;40151;43.606;1.472;2023-07-02T10:44:11;99602.97;;;24.47;53.56
54236;BME280;40151;43.606;1.472;2023-07-02T10:46:46;99610.75;;;24.50;53.39
54236;BME280;40151;43.606;1.472;2023-07-02T10:49:14;99609.78;;;24.51;53.26
54236;BME280;40151;43.606;1.472;2023-07-02T10:51:39;99605.44;;;24.50;53.31
54236;BME280;40151;43.606;1.472;2023-07-02T10:54:05;99607.97;;;24.51;53.27
54236;BME280;40151;43.606;1.472;2023-07-02T10:56:31;99603.50;;;24.52;53.25
54236;BME280;40151;43.606;1.472;2023-07-02T10:58:57;99609.56;;;24.54;53.26
54236;BME280;40151;43.606;1.472;2023-07-02T11:01:32;99606.88;;;24.54;53.51
54236;BME280;40151;43.606;1.472;2023-07-02T11:04:04;99605.19;;;24.53;53.51
54236;BME280;40151;43.606;1.472;2023-07-02T11:06:31;99611.38;;;24.53;53.24
54236;BME280;40151;43.606;1.472;2023-07-02T11:09:00;99611.38;;;24.53;53.32
54236;BME280;40151;43.606;1.472;2023-07-02T11:11:26;99605.19;;;24.53;53.39
54236;BME280;40151;43.606;1.472;2023-07-02T11:13:52;99599.97;;;24.51;53.51
54236;BME280;40151;43.606;1.472;2023-07-02T11:16:24;99605.91;;;24.55;53.26
54236;BME280;40151;43.606;1.472;2023-07-02T11:19:11;99604.22;;;24.54;53.66
54236;BME280;40151;43.606;1.472;2023-07-02T11:21:37;99599.63;;;24.56;53.46
54236;BME280;40151;43.606;1.472;2023-07-02T11:24:07;99602.31;;;24.56;53.37
54236;BME280;40151;43.606;1.472;2023-07-02T11:26:37;99604.00;;;24.57;53.46
54236;BME280;40151;43.606;1.472;2023-07-02T11:29:03;99610.31;;;24.56;53.52
54236;BME280;40151;43.606;1.472;2023-07-02T11:31:29;99606.66;;;24.57;53.24
54236;BME280;40151;43.606;1.472;2023-07-02T11:33:54;99609.34;;;24.57;53.20
54236;BME280;40151;43.606;1.472;2023-07-02T11:36:24;99602.16;;;24.58;53.43
54236;BME280;40151;43.606;1.472;2023-07-02T11:38:50;99593.34;;;24.57;53.60
54236;BME280;40151;43.606;1.472;2023-07-02T11:41:17;99594.31;;;24.56;53.45
54236;BME280;40151;43.606;1.472;2023-07-02T11:43:42;99594.31;;;24.56;53.63
54236;BME280;40151;43.606;1.472;2023-07-02T11:46:08;99585.44;;;24.56;53.63
54236;BME280;40151;43.606;1.472;2023-07-02T11:48:33;99594.31;;;24.56;53.51
54236;BME280;40151;43.606;1.472;2023-07-02T11:50:59;99581.91;;;24.55;53.69
54236;BME280;40151;43.606;1.472;2023-07-02T11:53:25;99582.78;;;24.56;53.52
54236;BME280;40151;43.606;1.472;2023-07-02T11:55:50;99572.97;;;24.56;53.39
54236;BME280;40151;43.606;1.472;2023-07-02T11:58:15;99565.91;;;24.55;53.70
54236;BME280;40151;43.606;1.472;2023-07-02T12:00:41;99573.91;;;24.55;53.65
54236;BME280;40151;43.606;1.472;2023-07-02T12:03:06;99574.66;;;24.57;53.51
54236;BME280;40151;43.606;1.472;2023-07-02T12:05:32;99564.97;;;24.56;53.37
54236;BME280;40151;43.606;1.472;2023-07-02T12:07:57;99562.28;;;24.56;53.86
54236;BME280;40151;43.606;1.472;2023-07-02T12:10:23;99562.28;;;24.56;53.74
54236;BME280;40151;43.606;1.472;2023-07-02T12:12:48;99556.97;;;24.56;53.96
54236;BME280;40151;43.606;1.472;2023-07-02T12:15:13;99561.31;;;24.57;53.96
54236;BME280;40151;43.606;1.472;2023-07-02T12:17:39;99563.88;;;24.59;53.80
54236;BME280;40151;43.606;1.472;2023-07-02T12:20:04;99563.03;;;24.58;53.86
54236;BME280;40151;43.606;1.472;2023-07-02T12:22:30;99561.06;;;24.60;54.00
54236;BME280;40151;43.606;1.472;2023-07-02T12:24:55;99561.84;;;24.62;53.52
54236;BME280;40151;43.606;1.472;2023-07-02T12:27:22;99561.84;;;24.62;53.53
54236;BME280;40151;43.606;1.472;2023-07-02T12:29:48;99556.34;;;24.64;53.62
54236;BME280;40151;43.606;1.472;2023-07-02T12:32:14;99558.91;;;24.65;53.42
54236;BME280;40151;43.606;1.472;2023-07-02T12:34:40;99553.59;;;24.65;53.45
54236;BME280;40151;43.606;1.472;2023-07-02T12:37:05;99560.50;;;24.68;53.31
54236;BME280;40151;43.606;1.472;2023-07-02T12:39:30;99565.00;;;24.67;53.50
54236;BME280;40151;43.606;1.472;2023-07-02T12:41:56;99562.19;;;24.69;53.44
54236;BME280;40151;43.606;1.472;2023-07-02T12:44:21;99567.53;;;24.69;53.70
54236;BME280;40151;43.606;1.472;2023-07-02T12:46:47;99563.06;;;24.70;53.53
54236;BME280;40151;43.606;1.472;2023-07-02T12:49:12;99559.44;;;24.71;53.41
54236;BME280;40151;43.606;1.472;2023-07-02T12:51:38;99564.75;;;24.71;53.32
54236;BME280;40151;43.606;1.472;2023-07-02T12:54:04;99561.13;;;24.72;53.41